Terminal Aerodrome Forecast
Issued by NWS Paducah, KY

Home | Current Version | Previous Version | Text Only | Print | Product List | Glossary On
Versions: 1 2 3 4 5 6 7 8 9 10 11 12 13 14 15 16 17 18 19 20 21 22 23 24
000
FTUS43 KPAH 031120
TAFPAH
TAF
KPAH 031120Z 0312/0412 22005KT P6SM FEW090 FEW250
     FM031600 24009KT P6SM FEW060 FEW250
     FM040200 21006KT P6SM VCSH FEW060 SCT250
     FM040400 20005KT P6SM FEW045 SCT250
     FM040800 00000KT P6SM BKN200=

USA.gov is the U.S. government's official web portal to all federal, state and local government web resources and services.